sensor_id;sensor_type;location;lat;lon;timestamp;temperature;humidity
20125;DHT22;10223;50.862;4.360;2024-02-21T00:00:53;9.30;99.90
20125;DHT22;10223;50.862;4.360;2024-02-21T00:03:21;9.40;99.90
20125;DHT22;10223;50.862;4.360;2024-02-21T00:05:48;9.40;99.90
20125;DHT22;10223;50.862;4.360;2024-02-21T00:08:15;9.40;99.90
20125;DHT22;10223;50.862;4.360;2024-02-21T00:10:42;9.30;99.90
20125;DHT22;10223;50.862;4.360;2024-02-21T00:13:09;9.30;99.90
20125;DHT22;10223;50.862;4.360;2024-02-21T00:15:36;9.30;99.90
20125;DHT22;10223;50.862;4.360;2024-02-21T00:18:04;9.40;99.90
20125;DHT22;10223;50.862;4.360;2024-02-21T00:20:32;9.40;99.90
20125;DHT22;10223;50.862;4.360;2024-02-21T00:22:59;9.40;99.90
20125;DHT22;10223;50.862;4.360;2024-02-21T00:25:26;9.40;99.90
20125;DHT22;10223;50.862;4.360;2024-02-21T00:27:53;9.30;99.90
20125;DHT22;10223;50.862;4.360;2024-02-21T00:30:20;9.30;99.90
20125;DHT22;10223;50.862;4.360;2024-02-21T00:32:47;9.30;99.90
20125;DHT22;10223;50.862;4.360;2024-02-21T00:35:14;9.30;99.90
20125;DHT22;10223;50.862;4.360;2024-02-21T00:37:43;9.30;99.90
20125;DHT22;10223;50.862;4.360;2024-02-21T00:40:10;9.30;99.90
20125;DHT22;10223;50.862;4.360;2024-02-21T00:42:37;9.30;99.90
20125;DHT22;10223;50.862;4.360;2024-02-21T00:45:05;9.30;99.90
20125;DHT22;10223;50.862;4.360;2024-02-21T00:47:33;9.30;99.90
20125;DHT22;10223;50.862;4.360;2024-02-21T00:50:00;9.40;99.90
20125;DHT22;10223;50.862;4.360;2024-02-21T00:52:27;9.40;99.90
20125;DHT22;10223;50.862;4.360;2024-02-21T00:54:55;9.40;99.90
20125;DHT22;10223;50.862;4.360;2024-02-21T00:57:22;9.50;99.90
20125;DHT22;10223;50.862;4.360;2024-02-21T00:59:49;9.50;99.90
20125;DHT22;10223;50.862;4.360;2024-02-21T01:02:16;9.50;99.90
20125;DHT22;10223;50.862;4.360;2024-02-21T01:04:43;9.40;99.90
20125;DHT22;10223;50.862;4.360;2024-02-21T01:07:10;9.40;99.90
20125;DHT22;10223;50.862;4.360;2024-02-21T01:09:37;9.30;99.90
20125;DHT22;10223;50.862;4.360;2024-02-21T01:12:06;9.30;99.90
20125;DHT22;10223;50.862;4.360;2024-02-21T01:14:33;9.30;99.90
20125;DHT22;10223;50.862;4.360;2024-02-21T01:17:00;9.30;99.90
20125;DHT22;10223;50.862;4.360;2024-02-21T01:19:27;9.40;99.90
20125;DHT22;10223;50.862;4.360;2024-02-21T01:21:54;9.40;99.90
20125;DHT22;10223;50.862;4.360;2024-02-21T01:24:21;9.40;99.90
20125;DHT22;10223;50.862;4.360;2024-02-21T01:26:48;9.30;99.90
20125;DHT22;10223;50.862;4.360;2024-02-21T01:29:17;9.20;99.90
20125;DHT22;10223;50.862;4.360;2024-02-21T01:31:43;9.20;99.90
20125;DHT22;10223;50.862;4.360;2024-02-21T01:34:11;9.20;99.90
20125;DHT22;10223;50.862;4.360;2024-02-21T01:36:38;9.20;99.90
20125;DHT22;10223;50.862;4.360;2024-02-21T01:39:05;9.20;99.90
20125;DHT22;10223;50.862;4.360;2024-02-21T01:41:32;9.20;99.90
20125;DHT22;10223;50.862;4.360;2024-02-21T01:43:59;9.20;99.90
20125;DHT22;10223;50.862;4.360;2024-02-21T01:46:27;9.20;99.90
20125;DHT22;10223;50.862;4.360;2024-02-21T01:48:56;9.10;99.90
20125;DHT22;10223;50.862;4.360;2024-02-21T01:51:23;9.10;99.90
20125;DHT22;10223;50.862;4.360;2024-02-21T01:53:51;9.10;99.90
20125;DHT22;10223;50.862;4.360;2024-02-21T01:56:18;9.10;99.90
20125;DHT22;10223;50.862;4.360;2024-02-21T01:58:47;9.10;99.90
20125;DHT22;10223;50.862;4.360;2024-02-21T02:01:15;9.10;99.90
20125;DHT22;10223;50.862;4.360;2024-02-21T02:03:45;9.10;99.90
20125;DHT22;10223;50.862;4.360;2024-02-21T02:06:12;9.10;99.90
20125;DHT22;10223;50.862;4.360;2024-02-21T02:08:40;9.20;99.90
20125;DHT22;10223;50.862;4.360;2024-02-21T02:11:07;9.20;99.90
20125;DHT22;10223;50.862;4.360;2024-02-21T02:13:34;9.20;99.90
20125;DHT22;10223;50.862;4.360;2024-02-21T02:16:01;9.10;99.90
20125;DHT22;10223;50.862;4.360;2024-02-21T02:18:28;9.10;99.90
20125;DHT22;10223;50.862;4.360;2024-02-21T02:20:56;9.20;99.90
20125;DHT22;10223;50.862;4.360;2024-02-21T02:23:25;9.10;99.90
20125;DHT22;10223;50.862;4.360;2024-02-21T02:25:52;9.20;99.90
20125;DHT22;10223;50.862;4.360;2024-02-21T02:28:20;9.30;99.90
20125;DHT22;10223;50.862;4.360;2024-02-21T02:30:48;9.30;99.90
20125;DHT22;10223;50.862;4.360;2024-02-21T02:33:15;9.30;99.90
20125;DHT22;10223;50.862;4.360;2024-02-21T02:35:43;9.30;99.90
20125;DHT22;10223;50.862;4.360;2024-02-21T02:38:10;9.30;99.90
20125;DHT22;10223;50.862;4.360;2024-02-21T02:40:42;9.20;99.90
20125;DHT22;10223;50.862;4.360;2024-02-21T02:43:09;9.20;99.90
20125;DHT22;10223;50.862;4.360;2024-02-21T02:45:36;9.30;99.90
20125;DHT22;10223;50.862;4.360;2024-02-21T02:48:04;9.30;99.90
20125;DHT22;10223;50.862;4.360;2024-02-21T02:50:31;9.20;99.90
20125;DHT22;10223;50.862;4.360;2024-02-21T02:52:58;9.20;99.90
20125;DHT22;10223;50.862;4.360;2024-02-21T02:55:25;9.20;99.90
20125;DHT22;10223;50.862;4.360;2024-02-21T02:57:54;9.10;99.90
20125;DHT22;10223;50.862;4.360;2024-02-21T03:00:21;9.00;99.90
20125;DHT22;10223;50.862;4.360;2024-02-21T03:02:49;9.00;99.90
20125;DHT22;10223;50.862;4.360;2024-02-21T03:05:17;9.00;99.90
20125;DHT22;10223;50.862;4.360;2024-02-21T03:07:44;9.00;99.90
20125;DHT22;10223;50.862;4.360;2024-02-21T03:10:11;8.90;99.90
20125;DHT22;10223;50.862;4.360;2024-02-21T03:12:39;8.90;99.90
20125;DHT22;10223;50.862;4.360;2024-02-21T03:15:08;9.00;99.90
20125;DHT22;10223;50.862;4.360;2024-02-21T03:17:35;9.00;99.90
20125;DHT22;10223;50.862;4.360;2024-02-21T03:20:03;9.00;99.90
20125;DHT22;10223;50.862;4.360;2024-02-21T03:22:31;9.10;99.90
20125;DHT22;10223;50.862;4.360;2024-02-21T03:24:58;9.20;99.90
20125;DHT22;10223;50.862;4.360;2024-02-21T03:27:25;9.10;99.90
20125;DHT22;10223;50.862;4.360;2024-02-21T03:29:52;9.20;99.90
20125;DHT22;10223;50.862;4.360;2024-02-21T03:32:21;9.10;99.90
20125;DHT22;10223;50.862;4.360;2024-02-21T03:34:48;9.10;99.90
20125;DHT22;10223;50.862;4.360;2024-02-21T03:37:15;9.10;99.90
20125;DHT22;10223;50.862;4.360;2024-02-21T03:39:42;9.10;99.90
20125;DHT22;10223;50.862;4.360;2024-02-21T03:42:09;9.10;99.90
20125;DHT22;10223;50.862;4.360;2024-02-21T03:44:37;9.10;99.90
20125;DHT22;10223;50.862;4.360;2024-02-21T03:47:04;9.00;99.90
20125;DHT22;10223;50.862;4.360;2024-02-21T03:49:32;9.10;99.90
20125;DHT22;10223;50.862;4.360;2024-02-21T03:51:59;9.10;99.90
20125;DHT22;10223;50.862;4.360;2024-02-21T03:54:26;9.10;99.90
20125;DHT22;10223;50.862;4.360;2024-02-21T03:56:53;9.10;99.90
20125;DHT22;10223;50.862;4.360;2024-02-21T03:59:20;9.10;99.90
20125;DHT22;10223;50.862;4.360;2024-02-21T04:01:51;9.00;99.90
20125;DHT22;10223;50.862;4.360;2024-02-21T04:04:18;9.00;99.90
20125;DHT22;10223;50.862;4.360;2024-02-21T04:06:50;9.00;99.90
20125;DHT22;10223;50.862;4.360;2024-02-21T04:09:18;9.00;99.90
20125;DHT22;10223;50.862;4.360;2024-02-21T04:11:45;9.00;99.90
20125;DHT22;10223;50.862;4.360;2024-02-21T04:14:12;9.10;99.90
20125;DHT22;10223;50.862;4.360;2024-02-21T04:16:39;9.10;99.90
20125;DHT22;10223;50.862;4.360;2024-02-21T04:19:06;9.10;99.90
20125;DHT22;10223;50.862;4.360;2024-02-21T04:21:33;9.10;99.90
20125;DHT22;10223;50.862;4.360;2024-02-21T04:24:01;9.10;99.90
20125;DHT22;10223;50.862;4.360;2024-02-21T04:26:30;9.20;99.90
20125;DHT22;10223;50.862;4.360;2024-02-21T04:28:57;9.20;99.90
20125;DHT22;10223;50.862;4.360;2024-02-21T04:31:24;9.10;99.90
20125;DHT22;10223;50.862;4.360;2024-02-21T04:33:51;9.10;99.90
20125;DHT22;10223;50.862;4.360;2024-02-21T04:36:18;9.10;99.90
20125;DHT22;10223;50.862;4.360;2024-02-21T04:38:45;9.10;99.90
20125;DHT22;10223;50.862;4.360;2024-02-21T04:41:14;9.10;99.90
20125;DHT22;10223;50.862;4.360;2024-02-21T04:43:41;9.10;99.90
20125;DHT22;10223;50.862;4.360;2024-02-21T04:46:08;9.00;99.90
20125;DHT22;10223;50.862;4.360;2024-02-21T04:48:35;9.00;99.90
20125;DHT22;10223;50.862;4.360;2024-02-21T04:51:02;9.00;99.90
20125;DHT22;10223;50.862;4.360;2024-02-21T04:53:29;9.00;99.90
20125;DHT22;10223;50.862;4.360;2024-02-21T04:55:56;9.00;99.90
20125;DHT22;10223;50.862;4.360;2024-02-21T04:58:25;9.00;99.90
20125;DHT22;10223;50.862;4.360;2024-02-21T05:00:52;9.10;99.90
20125;DHT22;10223;50.862;4.360;2024-02-21T05:03:20;9.10;99.90
20125;DHT22;10223;50.862;4.360;2024-02-21T05:05:47;9.10;99.90
20125;DHT22;10223;50.862;4.360;2024-02-21T05:08:14;9.10;99.90
20125;DHT22;10223;50.862;4.360;2024-02-21T05:10:41;9.10;99.90
20125;DHT22;10223;50.862;4.360;2024-02-21T05:13:08;9.10;99.90
20125;DHT22;10223;50.862;4.360;2024-02-21T05:15:37;9.20;99.90
20125;DHT22;10223;50.862;4.360;2024-02-21T05:18:04;9.20;99.90
20125;DHT22;10223;50.862;4.360;2024-02-21T05:20:31;9.20;99.90
20125;DHT22;10223;50.862;4.360;2024-02-21T05:22:59;9.20;99.90
20125;DHT22;10223;50.862;4.360;2024-02-21T05:25:28;9.20;99.90
20125;DHT22;10223;50.862;4.360;2024-02-21T05:27:55;9.20;99.90
20125;DHT22;10223;50.862;4.360;2024-02-21T05:30:27;9.20;99.90
20125;DHT22;10223;50.862;4.360;2024-02-21T05:32:57;9.20;99.90
20125;DHT22;10223;50.862;4.360;2024-02-21T05:35:27;9.20;99.90
20125;DHT22;10223;50.862;4.360;2024-02-21T05:37:54;9.20;99.90
20125;DHT22;10223;50.862;4.360;2024-02-21T05:40:23;9.20;99.90
20125;DHT22;10223;50.862;4.360;2024-02-21T05:42:50;9.20;99.90
20125;DHT22;10223;50.862;4.360;2024-02-21T05:45:18;9.20;99.90
20125;DHT22;10223;50.862;4.360;2024-02-21T05:47:44;9.30;99.90
20125;DHT22;10223;50.862;4.360;2024-02-21T05:50:13;9.20;99.90
20125;DHT22;10223;50.862;4.360;2024-02-21T05:52:40;9.20;99.90
20125;DHT22;10223;50.862;4.360;2024-02-21T05:55:07;9.20;99.90
20125;DHT22;10223;50.862;4.360;2024-02-21T05:57:35;9.20;99.90
20125;DHT22;10223;50.862;4.360;2024-02-21T06:00:04;9.30;99.90
20125;DHT22;10223;50.862;4.360;2024-02-21T06:02:31;9.20;99.90
20125;DHT22;10223;50.862;4.360;2024-02-21T06:04:58;9.20;99.90
20125;DHT22;10223;50.862;4.360;2024-02-21T06:07:27;9.20;99.90
20125;DHT22;10223;50.862;4.360;2024-02-21T06:09:54;9.20;99.90
20125;DHT22;10223;50.862;4.360;2024-02-21T06:12:21;9.40;99.90
20125;DHT22;10223;50.862;4.360;2024-02-21T06:14:48;9.30;99.90
20125;DHT22;10223;50.862;4.360;2024-02-21T06:17:15;9.30;99.90
20125;DHT22;10223;50.862;4.360;2024-02-21T06:19:43;9.30;99.90
20125;DHT22;10223;50.862;4.360;2024-02-21T06:22:10;9.30;99.90
20125;DHT22;10223;50.862;4.360;2024-02-21T06:24:39;9.20;99.90
20125;DHT22;10223;50.862;4.360;2024-02-21T06:27:06;9.20;99.90
20125;DHT22;10223;50.862;4.360;2024-02-21T06:29:33;9.30;99.90
20125;DHT22;10223;50.862;4.360;2024-02-21T06:32:00;9.20;99.90
20125;DHT22;10223;50.862;4.360;2024-02-21T06:34:27;9.30;99.90
20125;DHT22;10223;50.862;4.360;2024-02-21T06:36:54;9.30;99.90
20125;DHT22;10223;50.862;4.360;2024-02-21T06:39:21;9.20;99.90
20125;DHT22;10223;50.862;4.360;2024-02-21T06:41:50;9.20;99.90
20125;DHT22;10223;50.862;4.360;2024-02-21T06:44:19;9.30;99.90
20125;DHT22;10223;50.862;4.360;2024-02-21T06:46:46;9.30;99.90
20125;DHT22;10223;50.862;4.360;2024-02-21T06:49:13;9.20;99.90
20125;DHT22;10223;50.862;4.360;2024-02-21T06:51:41;9.20;99.90
20125;DHT22;10223;50.862;4.360;2024-02-21T06:54:09;9.20;99.90
20125;DHT22;10223;50.862;4.360;2024-02-21T06:56:37;9.30;99.90
20125;DHT22;10223;50.862;4.360;2024-02-21T06:59:05;9.20;99.90
20125;DHT22;10223;50.862;4.360;2024-02-21T07:01:32;9.10;99.90
20125;DHT22;10223;50.862;4.360;2024-02-21T07:03:59;9.10;99.90
20125;DHT22;10223;50.862;4.360;2024-02-21T07:06:26;8.90;99.90
20125;DHT22;10223;50.862;4.360;2024-02-21T07:08:53;9.00;99.90
20125;DHT22;10223;50.862;4.360;2024-02-21T07:11:20;9.00;99.90
20125;DHT22;10223;50.862;4.360;2024-02-21T07:13:49;9.00;99.90
20125;DHT22;10223;50.862;4.360;2024-02-21T07:16:18;9.00;99.90
20125;DHT22;10223;50.862;4.360;2024-02-21T07:18:47;8.80;99.90
20125;DHT22;10223;50.862;4.360;2024-02-21T07:21:17;8.80;99.90
20125;DHT22;10223;50.862;4.360;2024-02-21T07:23:44;8.80;99.90
20125;DHT22;10223;50.862;4.360;2024-02-21T07:26:14;8.80;99.90
20125;DHT22;10223;50.862;4.360;2024-02-21T07:28:41;8.80;99.90
20125;DHT22;10223;50.862;4.360;2024-02-21T07:31:08;8.70;99.90
20125;DHT22;10223;50.862;4.360;2024-02-21T07:33:36;8.70;99.90
20125;DHT22;10223;50.862;4.360;2024-02-21T07:36:06;8.70;99.90
20125;DHT22;10223;50.862;4.360;2024-02-21T07:38:33;8.70;99.90
20125;DHT22;10223;50.862;4.360;2024-02-21T07:41:00;8.70;99.90
20125;DHT22;10223;50.862;4.360;2024-02-21T07:43:27;8.60;99.90
20125;DHT22;10223;50.862;4.360;2024-02-21T07:45:54;8.70;99.90
20125;DHT22;10223;50.862;4.360;2024-02-21T07:48:21;8.70;99.90
20125;DHT22;10223;50.862;4.360;2024-02-21T07:50:51;8.80;99.90
20125;DHT22;10223;50.862;4.360;2024-02-21T07:53:19;8.70;99.90
20125;DHT22;10223;50.862;4.360;2024-02-21T07:55:46;8.80;99.90
20125;DHT22;10223;50.862;4.360;2024-02-21T07:58:13;8.90;99.90
20125;DHT22;10223;50.862;4.360;2024-02-21T08:00:40;8.80;99.90
20125;DHT22;10223;50.862;4.360;2024-02-21T08:03:07;8.90;99.90
20125;DHT22;10223;50.862;4.360;2024-02-21T08:05:34;8.90;99.90
20125;DHT22;10223;50.862;4.360;2024-02-21T08:08:03;8.90;99.90
20125;DHT22;10223;50.862;4.360;2024-02-21T08:10:30;9.00;99.90
20125;DHT22;10223;50.862;4.360;2024-02-21T08:12:57;9.00;99.90
20125;DHT22;10223;50.862;4.360;2024-02-21T08:15:24;9.00;99.90
20125;DHT22;10223;50.862;4.360;2024-02-21T08:17:55;9.00;99.90
20125;DHT22;10223;50.862;4.360;2024-02-21T08:20:25;9.10;99.90
20125;DHT22;10223;50.862;4.360;2024-02-21T08:22:52;9.20;99.90
20125;DHT22;10223;50.862;4.360;2024-02-21T08:25:20;9.20;99.90
20125;DHT22;10223;50.862;4.360;2024-02-21T08:27:47;9.20;99.90
20125;DHT22;10223;50.862;4.360;2024-02-21T08:30:15;9.10;99.90
20125;DHT22;10223;50.862;4.360;2024-02-21T08:32:41;9.20;99.90
20125;DHT22;10223;50.862;4.360;2024-02-21T08:35:08;9.10;99.90
20125;DHT22;10223;50.862;4.360;2024-02-21T08:37:35;9.10;99.90
20125;DHT22;10223;50.862;4.360;2024-02-21T08:40:03;9.20;99.90
20125;DHT22;10223;50.862;4.360;2024-02-21T08:42:35;9.20;99.90
20125;DHT22;10223;50.862;4.360;2024-02-21T08:45:03;9.20;99.90
20125;DHT22;10223;50.862;4.360;2024-02-21T08:47:30;9.30;99.90
20125;DHT22;10223;50.862;4.360;2024-02-21T08:49:58;9.30;99.90
20125;DHT22;10223;50.862;4.360;2024-02-21T08:52:25;9.30;99.90
20125;DHT22;10223;50.862;4.360;2024-02-21T08:54:52;9.30;99.90
20125;DHT22;10223;50.862;4.360;2024-02-21T08:57:19;9.40;99.90
20125;DHT22;10223;50.862;4.360;2024-02-21T08:59:47;9.40;99.90
20125;DHT22;10223;50.862;4.360;2024-02-21T09:02:14;9.40;99.90
20125;DHT22;10223;50.862;4.360;2024-02-21T09:04:42;9.50;99.90
20125;DHT22;10223;50.862;4.360;2024-02-21T09:07:10;9.40;99.90
20125;DHT22;10223;50.862;4.360;2024-02-21T09:09:37;9.40;99.90
20125;DHT22;10223;50.862;4.360;2024-02-21T09:12:06;9.40;99.90
20125;DHT22;10223;50.862;4.360;2024-02-21T09:14:33;9.40;99.90
20125;DHT22;10223;50.862;4.360;2024-02-21T09:17:02;9.40;99.90
20125;DHT22;10223;50.862;4.360;2024-02-21T09:19:29;9.40;99.90
20125;DHT22;10223;50.862;4.360;2024-02-21T09:21:56;9.50;99.90
20125;DHT22;10223;50.862;4.360;2024-02-21T09:24:23;9.50;99.90
20125;DHT22;10223;50.862;4.360;2024-02-21T09:26:49;9.50;99.90
20125;DHT22;10223;50.862;4.360;2024-02-21T09:29:16;9.60;99.90
20125;DHT22;10223;50.862;4.360;2024-02-21T09:31:43;9.60;99.90
20125;DHT22;10223;50.862;4.360;2024-02-21T09:34:12;9.60;99.90
20125;DHT22;10223;50.862;4.360;2024-02-21T09:36:39;9.60;99.90
20125;DHT22;10223;50.862;4.360;2024-02-21T09:39:06;9.60;99.90
20125;DHT22;10223;50.862;4.360;2024-02-21T09:41:36;9.70;99.90
20125;DHT22;10223;50.862;4.360;2024-02-21T09:44:05;9.70;99.90
20125;DHT22;10223;50.862;4.360;2024-02-21T09:46:39;9.70;99.90
20125;DHT22;10223;50.862;4.360;2024-02-21T09:49:21;9.80;99.90
20125;DHT22;10223;50.862;4.360;2024-02-21T09:51:51;9.80;99.90
20125;DHT22;10223;50.862;4.360;2024-02-21T09:54:20;9.80;99.90
20125;DHT22;10223;50.862;4.360;2024-02-21T09:56:48;9.80;99.90
20125;DHT22;10223;50.862;4.360;2024-02-21T09:59:15;9.80;99.90
20125;DHT22;10223;50.862;4.360;2024-02-21T10:01:43;9.80;99.90
20125;DHT22;10223;50.862;4.360;2024-02-21T10:04:13;9.80;99.90
20125;DHT22;10223;50.862;4.360;2024-02-21T10:06:41;9.80;99.90
20125;DHT22;10223;50.862;4.360;2024-02-21T10:09:08;9.90;99.90
20125;DHT22;10223;50.862;4.360;2024-02-21T10:11:35;10.00;99.90
20125;DHT22;10223;50.862;4.360;2024-02-21T10:14:05;10.00;99.90
20125;DHT22;10223;50.862;4.360;2024-02-21T10:16:33;10.00;99.90
20125;DHT22;10223;50.862;4.360;2024-02-21T10:19:00;10.00;99.90
20125;DHT22;10223;50.862;4.360;2024-02-21T10:21:28;10.00;99.90
20125;DHT22;10223;50.862;4.360;2024-02-21T10:23:55;10.00;99.90
20125;DHT22;10223;50.862;4.360;2024-02-21T10:26:23;10.00;99.90
20125;DHT22;10223;50.862;4.360;2024-02-21T10:28:50;10.00;99.90
20125;DHT22;10223;50.862;4.360;2024-02-21T10:31:23;10.10;99.90
20125;DHT22;10223;50.862;4.360;2024-02-21T10:33:55;10.10;99.90
20125;DHT22;10223;50.862;4.360;2024-02-21T10:36:23;10.20;99.90
20125;DHT22;10223;50.862;4.360;2024-02-21T10:38:52;10.20;99.90
20125;DHT22;10223;50.862;4.360;2024-02-21T10:41:20;10.20;99.90
20125;DHT22;10223;50.862;4.360;2024-02-21T10:43:50;10.20;99.90
20125;DHT22;10223;50.862;4.360;2024-02-21T10:46:19;10.10;99.90
20125;DHT22;10223;50.862;4.360;2024-02-21T10:48:47;10.10;99.90
20125;DHT22;10223;50.862;4.360;2024-02-21T10:51:18;10.10;99.90
20125;DHT22;10223;50.862;4.360;2024-02-21T10:53:53;10.10;99.90
20125;DHT22;10223;50.862;4.360;2024-02-21T10:56:28;10.20;99.90
20125;DHT22;10223;50.862;4.360;2024-02-21T10:58:57;10.30;99.90
20125;DHT22;10223;50.862;4.360;2024-02-21T11:01:24;10.20;99.90
20125;DHT22;10223;50.862;4.360;2024-02-21T11:03:55;10.20;99.90
20125;DHT22;10223;50.862;4.360;2024-02-21T11:06:23;10.20;99.90
20125;DHT22;10223;50.862;4.360;2024-02-21T11:09:03;10.20;99.90
20125;DHT22;10223;50.862;4.360;2024-02-21T11:11:33;10.10;99.90
20125;DHT22;10223;50.862;4.360;2024-02-21T11:14:07;10.00;99.90
20125;DHT22;10223;50.862;4.360;2024-02-21T11:16:38;10.10;99.90
20125;DHT22;10223;50.862;4.360;2024-02-21T11:19:09;10.00;99.90
20125;DHT22;10223;50.862;4.360;2024-02-21T11:21:37;10.00;99.90
20125;DHT22;10223;50.862;4.360;2024-02-21T11:24:06;10.10;99.90
20125;DHT22;10223;50.862;4.360;2024-02-21T11:26:33;10.10;99.90
20125;DHT22;10223;50.862;4.360;2024-02-21T11:29:01;10.00;99.90
20125;DHT22;10223;50.862;4.360;2024-02-21T11:31:38;10.00;99.90
20125;DHT22;10223;50.862;4.360;2024-02-21T11:34:09;9.90;99.90
20125;DHT22;10223;50.862;4.360;2024-02-21T11:36:36;9.90;99.90
20125;DHT22;10223;50.862;4.360;2024-02-21T11:39:18;10.00;99.90
20125;DHT22;10223;50.862;4.360;2024-02-21T11:41:46;9.90;99.90
20125;DHT22;10223;50.862;4.360;2024-02-21T11:44:13;9.90;99.90
20125;DHT22;10223;50.862;4.360;2024-02-21T11:46:40;9.80;99.90
20125;DHT22;10223;50.862;4.360;2024-02-21T11:49:07;9.90;99.90
20125;DHT22;10223;50.862;4.360;2024-02-21T11:51:34;10.00;99.90
20125;DHT22;10223;50.862;4.360;2024-02-21T11:54:01;10.10;99.90
20125;DHT22;10223;50.862;4.360;2024-02-21T11:56:31;10.10;99.90
20125;DHT22;10223;50.862;4.360;2024-02-21T11:58:59;10.00;99.90
20125;DHT22;10223;50.862;4.360;2024-02-21T12:01:27;10.00;99.90
20125;DHT22;10223;50.862;4.360;2024-02-21T12:03:54;10.00;99.90
20125;DHT22;10223;50.862;4.360;2024-02-21T12:06:21;10.00;99.90
20125;DHT22;10223;50.862;4.360;2024-02-21T12:08:48;10.00;99.90
20125;DHT22;10223;50.862;4.360;2024-02-21T12:11:19;10.00;99.90
20125;DHT22;10223;50.862;4.360;2024-02-21T12:13:58;10.00;99.90
20125;DHT22;10223;50.862;4.360;2024-02-21T12:16:27;10.10;99.90
20125;DHT22;10223;50.862;4.360;2024-02-21T12:18:54;10.10;99.90
20125;DHT22;10223;50.862;4.360;2024-02-21T12:21:24;10.00;99.90
20125;DHT22;10223;50.862;4.360;2024-02-21T12:23:51;10.00;99.90
20125;DHT22;10223;50.862;4.360;2024-02-21T12:26:18;10.00;99.90
20125;DHT22;10223;50.862;4.360;2024-02-21T12:28:45;10.00;99.90
20125;DHT22;10223;50.862;4.360;2024-02-21T12:31:14;10.00;99.90
20125;DHT22;10223;50.862;4.360;2024-02-21T12:33:41;9.90;99.90
20125;DHT22;10223;50.862;4.360;2024-02-21T12:36:09;9.90;99.90
20125;DHT22;10223;50.862;4.360;2024-02-21T12:38:36;10.00;99.90
20125;DHT22;10223;50.862;4.360;2024-02-21T12:41:03;10.10;99.90
20125;DHT22;10223;50.862;4.360;2024-02-21T12:43:30;10.10;99.90
20125;DHT22;10223;50.862;4.360;2024-02-21T12:45:57;10.00;99.90
20125;DHT22;10223;50.862;4.360;2024-02-21T12:48:26;10.00;99.90
20125;DHT22;10223;50.862;4.360;2024-02-21T12:50:53;10.10;99.90
20125;DHT22;10223;50.862;4.360;2024-02-21T12:53:20;10.00;99.90
20125;DHT22;10223;50.862;4.360;2024-02-21T12:55:48;10.00;99.90
20125;DHT22;10223;50.862;4.360;2024-02-21T12:58:15;10.00;99.90
20125;DHT22;10223;50.862;4.360;2024-02-21T13:00:42;10.00;99.90
20125;DHT22;10223;50.862;4.360;2024-02-21T13:03:10;10.10;99.90
20125;DHT22;10223;50.862;4.360;2024-02-21T13:05:38;10.10;99.90
20125;DHT22;10223;50.862;4.360;2024-02-21T13:08:06;10.20;99.90
20125;DHT22;10223;50.862;4.360;2024-02-21T13:10:33;10.30;99.90
20125;DHT22;10223;50.862;4.360;2024-02-21T13:13:00;10.30;99.90
20125;DHT22;10223;50.862;4.360;2024-02-21T13:15:27;10.20;99.90
20125;DHT22;10223;50.862;4.360;2024-02-21T13:17:55;10.20;99.90
20125;DHT22;10223;50.862;4.360;2024-02-21T13:20:22;10.20;99.90
20125;DHT22;10223;50.862;4.360;2024-02-21T13:22:50;10.20;99.90
20125;DHT22;10223;50.862;4.360;2024-02-21T13:25:17;10.20;99.90
20125;DHT22;10223;50.862;4.360;2024-02-21T13:27:46;10.20;99.90
20125;DHT22;10223;50.862;4.360;2024-02-21T13:30:14;10.20;99.90
20125;DHT22;10223;50.862;4.360;2024-02-21T13:32:44;10.20;99.90
20125;DHT22;10223;50.862;4.360;2024-02-21T13:35:12;10.20;99.90
20125;DHT22;10223;50.862;4.360;2024-02-21T13:37:40;10.20;99.90
20125;DHT22;10223;50.862;4.360;2024-02-21T13:40:09;10.20;99.90
20125;DHT22;10223;50.862;4.360;2024-02-21T13:42:36;10.20;99.90
20125;DHT22;10223;50.862;4.360;2024-02-21T13:45:04;10.20;99.90
20125;DHT22;10223;50.862;4.360;2024-02-21T13:47:32;10.20;99.90
20125;DHT22;10223;50.862;4.360;2024-02-21T13:49:59;10.10;99.90
20125;DHT22;10223;50.862;4.360;2024-02-21T13:52:26;10.00;99.90
20125;DHT22;10223;50.862;4.360;2024-02-21T13:54:53;10.00;99.90
20125;DHT22;10223;50.862;4.360;2024-02-21T13:57:21;10.00;99.90
20125;DHT22;10223;50.862;4.360;2024-02-21T13:59:48;10.00;99.90
20125;DHT22;10223;50.862;4.360;2024-02-21T14:02:16;10.00;99.90
20125;DHT22;10223;50.862;4.360;2024-02-21T14:04:43;10.00;99.90
20125;DHT22;10223;50.862;4.360;2024-02-21T14:07:10;9.90;99.90
20125;DHT22;10223;50.862;4.360;2024-02-21T14:09:37;9.90;99.90
20125;DHT22;10223;50.862;4.360;2024-02-21T14:12:05;9.90;99.90
20125;DHT22;10223;50.862;4.360;2024-02-21T14:14:35;9.90;99.90
20125;DHT22;10223;50.862;4.360;2024-02-21T14:17:02;9.90;99.90
20125;DHT22;10223;50.862;4.360;2024-02-21T14:19:29;9.90;99.90
20125;DHT22;10223;50.862;4.360;2024-02-21T14:21:56;9.80;99.90
20125;DHT22;10223;50.862;4.360;2024-02-21T14:24:39;9.80;99.90
20125;DHT22;10223;50.862;4.360;2024-02-21T14:27:07;9.80;99.90
20125;DHT22;10223;50.862;4.360;2024-02-21T14:29:34;9.80;99.90
20125;DHT22;10223;50.862;4.360;2024-02-21T14:32:01;9.70;99.90
20125;DHT22;10223;50.862;4.360;2024-02-21T14:34:28;9.70;99.90
20125;DHT22;10223;50.862;4.360;2024-02-21T14:36:55;9.70;99.90
20125;DHT22;10223;50.862;4.360;2024-02-21T14:39:22;9.70;99.90
20125;DHT22;10223;50.862;4.360;2024-02-21T14:41:51;9.60;99.90
20125;DHT22;10223;50.862;4.360;2024-02-21T14:44:18;9.70;99.90
20125;DHT22;10223;50.862;4.360;2024-02-21T14:46:45;9.60;99.90
20125;DHT22;10223;50.862;4.360;2024-02-21T14:49:12;9.60;99.90
20125;DHT22;10223;50.862;4.360;2024-02-21T14:51:38;9.60;99.90
20125;DHT22;10223;50.862;4.360;2024-02-21T14:54:06;9.60;99.90
20125;DHT22;10223;50.862;4.360;2024-02-21T14:56:34;9.50;99.90
20125;DHT22;10223;50.862;4.360;2024-02-21T14:59:02;9.50;99.90
20125;DHT22;10223;50.862;4.360;2024-02-21T15:01:36;9.50;99.90
20125;DHT22;10223;50.862;4.360;2024-02-21T15:04:08;9.60;99.90
20125;DHT22;10223;50.862;4.360;2024-02-21T15:06:35;9.50;99.90
20125;DHT22;10223;50.862;4.360;2024-02-21T15:09:03;9.50;99.90
20125;DHT22;10223;50.862;4.360;2024-02-21T15:11:31;9.50;99.90
20125;DHT22;10223;50.862;4.360;2024-02-21T15:14:01;9.50;99.90
20125;DHT22;10223;50.862;4.360;2024-02-21T15:16:28;9.50;99.90
20125;DHT22;10223;50.862;4.360;2024-02-21T15:18:55;9.50;99.90
20125;DHT22;10223;50.862;4.360;2024-02-21T15:21:23;9.50;99.90
20125;DHT22;10223;50.862;4.360;2024-02-21T15:23:50;9.40;99.90
20125;DHT22;10223;50.862;4.360;2024-02-21T15:26:17;9.40;99.90
20125;DHT22;10223;50.862;4.360;2024-02-21T15:28:46;9.50;99.90
20125;DHT22;10223;50.862;4.360;2024-02-21T15:31:21;9.50;99.90
20125;DHT22;10223;50.862;4.360;2024-02-21T15:33:53;9.40;99.90
20125;DHT22;10223;50.862;4.360;2024-02-21T15:36:20;9.50;99.90
20125;DHT22;10223;50.862;4.360;2024-02-21T15:38:47;9.40;99.90
20125;DHT22;10223;50.862;4.360;2024-02-21T15:41:15;9.40;99.90
20125;DHT22;10223;50.862;4.360;2024-02-21T15:43:42;9.40;99.90
20125;DHT22;10223;50.862;4.360;2024-02-21T15:46:11;9.40;99.90